sensor_id;sensor_type;location;lat;lon;timestamp;P1;durP1;ratioP1;P2;durP2;ratioP2
70532;SDS011;58088;51.186;17.130;2023-06-24T00:02:19;27.70;;;16.20;;
70532;SDS011;58088;51.186;17.130;2023-06-24T00:04:46;26.80;;;15.90;;
70532;SDS011;58088;51.186;17.130;2023-06-24T00:07:12;27.30;;;16.50;;
70532;SDS011;58088;51.186;17.130;2023-06-24T00:09:38;29.20;;;15.60;;
70532;SDS011;58088;51.186;17.130;2023-06-24T00:12:05;22.70;;;14.40;;
70532;SDS011;58088;51.186;17.130;2023-06-24T00:14:32;25.60;;;14.70;;
70532;SDS011;58088;51.186;17.130;2023-06-24T00:16:58;24.20;;;14.10;;
70532;SDS011;58088;51.186;17.130;2023-06-24T00:19:25;23.60;;;14.40;;
70532;SDS011;58088;51.186;17.130;2023-06-24T00:21:53;24.10;;;14.00;;
70532;SDS011;58088;51.186;17.130;2023-06-24T00:24:20;23.60;;;13.90;;
70532;SDS011;58088;51.186;17.130;2023-06-24T00:26:54;22.20;;;14.10;;
70532;SDS011;58088;51.186;17.130;2023-06-24T00:29:23;23.90;;;14.60;;
70532;SDS011;58088;51.186;17.130;2023-06-24T00:31:49;25.30;;;16.30;;
70532;SDS011;58088;51.186;17.130;2023-06-24T00:34:15;24.20;;;15.90;;
70532;SDS011;58088;51.186;17.130;2023-06-24T00:36:42;26.30;;;16.40;;
70532;SDS011;58088;51.186;17.130;2023-06-24T00:39:09;26.60;;;16.10;;
70532;SDS011;58088;51.186;17.130;2023-06-24T00:41:35;26.90;;;15.70;;
70532;SDS011;58088;51.186;17.130;2023-06-24T00:44:02;20.70;;;13.40;;
70532;SDS011;58088;51.186;17.130;2023-06-24T00:46:28;20.50;;;13.10;;
70532;SDS011;58088;51.186;17.130;2023-06-24T00:48:55;20.70;;;11.40;;
70532;SDS011;58088;51.186;17.130;2023-06-24T00:51:22;18.20;;;11.40;;
70532;SDS011;58088;51.186;17.130;2023-06-24T00:53:57;19.10;;;12.20;;
70532;SDS011;58088;51.186;17.130;2023-06-24T00:56:34;17.50;;;11.30;;
70532;SDS011;58088;51.186;17.130;2023-06-24T00:59:04;22.30;;;11.40;;
70532;SDS011;58088;51.186;17.130;2023-06-24T01:01:33;19.20;;;11.40;;
70532;SDS011;58088;51.186;17.130;2023-06-24T01:04:04;18.70;;;11.50;;
70532;SDS011;58088;51.186;17.130;2023-06-24T01:06:31;20.00;;;11.20;;
70532;SDS011;58088;51.186;17.130;2023-06-24T01:08:59;17.10;;;10.30;;
70532;SDS011;58088;51.186;17.130;2023-06-24T01:11:27;16.90;;;9.40;;
70532;SDS011;58088;51.186;17.130;2023-06-24T01:13:55;17.40;;;10.50;;
70532;SDS011;58088;51.186;17.130;2023-06-24T01:16:44;16.70;;;10.20;;
70532;SDS011;58088;51.186;17.130;2023-06-24T01:25:08;15.00;;;9.00;;
70532;SDS011;58088;51.186;17.130;2023-06-24T01:30:05;16.20;;;8.40;;
70532;SDS011;58088;51.186;17.130;2023-06-24T01:33:04;14.90;;;7.60;;
70532;SDS011;58088;51.186;17.130;2023-06-24T01:40:44;9.00;;;4.90;;
70532;SDS011;58088;51.186;17.130;2023-06-24T01:43:13;13.50;;;7.10;;
70532;SDS011;58088;51.186;17.130;2023-06-24T01:45:42;9.10;;;4.80;;
70532;SDS011;58088;51.186;17.130;2023-06-24T01:48:18;13.00;;;6.40;;
70532;SDS011;58088;51.186;17.130;2023-06-24T01:50:59;10.70;;;7.30;;
70532;SDS011;58088;51.186;17.130;2023-06-24T01:53:52;11.20;;;6.60;;
70532;SDS011;58088;51.186;17.130;2023-06-24T01:56:22;12.70;;;6.90;;
70532;SDS011;58088;51.186;17.130;2023-06-24T01:58:52;11.50;;;6.90;;
70532;SDS011;58088;51.186;17.130;2023-06-24T02:05:02;11.50;;;6.90;;
70532;SDS011;58088;51.186;17.130;2023-06-24T02:07:32;10.50;;;5.90;;
70532;SDS011;58088;51.186;17.130;2023-06-24T02:10:00;9.70;;;6.30;;
70532;SDS011;58088;51.186;17.130;2023-06-24T02:12:29;11.30;;;6.00;;
70532;SDS011;58088;51.186;17.130;2023-06-24T02:14:57;10.40;;;6.10;;
70532;SDS011;58088;51.186;17.130;2023-06-24T02:17:25;11.20;;;5.90;;
70532;SDS011;58088;51.186;17.130;2023-06-24T02:19:56;10.80;;;5.50;;
70532;SDS011;58088;51.186;17.130;2023-06-24T02:22:25;11.30;;;5.70;;
70532;SDS011;58088;51.186;17.130;2023-06-24T02:24:53;10.70;;;6.20;;
70532;SDS011;58088;51.186;17.130;2023-06-24T02:27:21;12.50;;;6.90;;
70532;SDS011;58088;51.186;17.130;2023-06-24T02:29:49;10.90;;;5.50;;
70532;SDS011;58088;51.186;17.130;2023-06-24T02:32:17;9.70;;;5.50;;
70532;SDS011;58088;51.186;17.130;2023-06-24T02:34:43;10.30;;;5.70;;
70532;SDS011;58088;51.186;17.130;2023-06-24T02:37:10;14.50;;;6.10;;
70532;SDS011;58088;51.186;17.130;2023-06-24T02:39:36;10.90;;;6.00;;
70532;SDS011;58088;51.186;17.130;2023-06-24T02:42:12;11.20;;;6.60;;
70532;SDS011;58088;51.186;17.130;2023-06-24T02:44:40;11.20;;;5.90;;
70532;SDS011;58088;51.186;17.130;2023-06-24T02:47:09;10.70;;;5.70;;
70532;SDS011;58088;51.186;17.130;2023-06-24T02:49:39;12.30;;;5.70;;
70532;SDS011;58088;51.186;17.130;2023-06-24T02:52:06;11.60;;;5.80;;
70532;SDS011;58088;51.186;17.130;2023-06-24T02:54:33;12.50;;;5.60;;
70532;SDS011;58088;51.186;17.130;2023-06-24T02:57:19;11.30;;;5.40;;
70532;SDS011;58088;51.186;17.130;2023-06-24T03:00:00;12.20;;;6.30;;
70532;SDS011;58088;51.186;17.130;2023-06-24T03:02:44;11.70;;;6.00;;
70532;SDS011;58088;51.186;17.130;2023-06-24T03:05:14;12.20;;;6.40;;
70532;SDS011;58088;51.186;17.130;2023-06-24T03:07:42;15.00;;;5.70;;
70532;SDS011;58088;51.186;17.130;2023-06-24T03:10:09;11.50;;;6.20;;
70532;SDS011;58088;51.186;17.130;2023-06-24T03:12:36;9.90;;;5.60;;
70532;SDS011;58088;51.186;17.130;2023-06-24T03:15:04;11.20;;;5.70;;
70532;SDS011;58088;51.186;17.130;2023-06-24T03:17:31;10.50;;;5.60;;
70532;SDS011;58088;51.186;17.130;2023-06-24T03:19:58;10.80;;;5.40;;
70532;SDS011;58088;51.186;17.130;2023-06-24T03:22:24;11.30;;;6.00;;
70532;SDS011;58088;51.186;17.130;2023-06-24T03:24:51;12.50;;;6.50;;
70532;SDS011;58088;51.186;17.130;2023-06-24T03:27:18;9.80;;;5.00;;
70532;SDS011;58088;51.186;17.130;2023-06-24T03:29:45;8.50;;;4.80;;
70532;SDS011;58088;51.186;17.130;2023-06-24T03:32:12;10.20;;;5.80;;
70532;SDS011;58088;51.186;17.130;2023-06-24T03:34:39;12.30;;;5.30;;
70532;SDS011;58088;51.186;17.130;2023-06-24T03:37:07;9.80;;;5.40;;
70532;SDS011;58088;51.186;17.130;2023-06-24T03:39:36;11.60;;;6.20;;
70532;SDS011;58088;51.186;17.130;2023-06-24T03:42:02;12.20;;;6.50;;
70532;SDS011;58088;51.186;17.130;2023-06-24T03:44:29;13.50;;;6.00;;
70532;SDS011;58088;51.186;17.130;2023-06-24T03:46:56;9.40;;;4.70;;
70532;SDS011;58088;51.186;17.130;2023-06-24T03:49:23;12.00;;;5.80;;
70532;SDS011;58088;51.186;17.130;2023-06-24T03:51:49;10.60;;;5.60;;
70532;SDS011;58088;51.186;17.130;2023-06-24T03:54:15;12.50;;;6.10;;
70532;SDS011;58088;51.186;17.130;2023-06-24T03:56:42;11.60;;;5.10;;
70532;SDS011;58088;51.186;17.130;2023-06-24T03:59:08;10.30;;;5.70;;
70532;SDS011;58088;51.186;17.130;2023-06-24T04:01:34;11.30;;;5.80;;
70532;SDS011;58088;51.186;17.130;2023-06-24T04:04:03;11.50;;;6.20;;
70532;SDS011;58088;51.186;17.130;2023-06-24T04:06:29;10.40;;;6.20;;
70532;SDS011;58088;51.186;17.130;2023-06-24T04:08:56;11.10;;;5.60;;
70532;SDS011;58088;51.186;17.130;2023-06-24T04:11:22;10.30;;;5.80;;
70532;SDS011;58088;51.186;17.130;2023-06-24T04:13:48;11.00;;;5.60;;
70532;SDS011;58088;51.186;17.130;2023-06-24T04:16:16;10.90;;;5.80;;
70532;SDS011;58088;51.186;17.130;2023-06-24T04:18:42;10.00;;;5.20;;
70532;SDS011;58088;51.186;17.130;2023-06-24T04:21:09;14.80;;;6.10;;
70532;SDS011;58088;51.186;17.130;2023-06-24T04:23:35;14.10;;;5.40;;
70532;SDS011;58088;51.186;17.130;2023-06-24T04:26:02;9.00;;;5.00;;
70532;SDS011;58088;51.186;17.130;2023-06-24T04:28:28;13.60;;;5.60;;
70532;SDS011;58088;51.186;17.130;2023-06-24T04:30:55;10.70;;;5.50;;
70532;SDS011;58088;51.186;17.130;2023-06-24T04:33:22;9.90;;;5.60;;
70532;SDS011;58088;51.186;17.130;2023-06-24T04:35:50;9.80;;;5.30;;
70532;SDS011;58088;51.186;17.130;2023-06-24T04:38:17;10.30;;;5.60;;
70532;SDS011;58088;51.186;17.130;2023-06-24T04:40:46;10.60;;;4.80;;
70532;SDS011;58088;51.186;17.130;2023-06-24T04:43:12;7.80;;;4.50;;
70532;SDS011;58088;51.186;17.130;2023-06-24T04:45:38;8.40;;;4.50;;
70532;SDS011;58088;51.186;17.130;2023-06-24T04:48:05;8.80;;;4.50;;
70532;SDS011;58088;51.186;17.130;2023-06-24T04:50:31;9.20;;;4.10;;
70532;SDS011;58088;51.186;17.130;2023-06-24T04:52:58;7.90;;;4.30;;
70532;SDS011;58088;51.186;17.130;2023-06-24T04:55:24;9.10;;;4.50;;
70532;SDS011;58088;51.186;17.130;2023-06-24T04:57:50;7.50;;;3.80;;
70532;SDS011;58088;51.186;17.130;2023-06-24T05:00:16;7.40;;;3.40;;
70532;SDS011;58088;51.186;17.130;2023-06-24T05:02:42;7.60;;;3.50;;
70532;SDS011;58088;51.186;17.130;2023-06-24T05:05:09;9.40;;;3.50;;
70532;SDS011;58088;51.186;17.130;2023-06-24T05:07:35;7.60;;;3.80;;
70532;SDS011;58088;51.186;17.130;2023-06-24T05:10:01;9.00;;;3.50;;
70532;SDS011;58088;51.186;17.130;2023-06-24T05:12:27;7.40;;;3.60;;
70532;SDS011;58088;51.186;17.130;2023-06-24T05:14:53;9.80;;;4.00;;
70532;SDS011;58088;51.186;17.130;2023-06-24T05:17:20;8.30;;;3.40;;
70532;SDS011;58088;51.186;17.130;2023-06-24T05:19:46;8.90;;;4.00;;
70532;SDS011;58088;51.186;17.130;2023-06-24T05:22:12;10.50;;;3.90;;
70532;SDS011;58088;51.186;17.130;2023-06-24T05:24:38;9.20;;;4.00;;
70532;SDS011;58088;51.186;17.130;2023-06-24T05:27:07;6.50;;;3.00;;
70532;SDS011;58088;51.186;17.130;2023-06-24T05:29:34;8.40;;;3.00;;
70532;SDS011;58088;51.186;17.130;2023-06-24T05:32:00;6.90;;;3.30;;
70532;SDS011;58088;51.186;17.130;2023-06-24T05:34:30;6.10;;;3.10;;
70532;SDS011;58088;51.186;17.130;2023-06-24T05:36:56;5.40;;;2.50;;
70532;SDS011;58088;51.186;17.130;2023-06-24T05:39:23;5.20;;;2.40;;
70532;SDS011;58088;51.186;17.130;2023-06-24T05:41:50;7.20;;;2.60;;
70532;SDS011;58088;51.186;17.130;2023-06-24T05:44:16;6.40;;;2.40;;
70532;SDS011;58088;51.186;17.130;2023-06-24T05:46:45;7.00;;;2.90;;
70532;SDS011;58088;51.186;17.130;2023-06-24T05:49:17;6.00;;;3.00;;
70532;SDS011;58088;51.186;17.130;2023-06-24T05:51:50;6.00;;;3.10;;
70532;SDS011;58088;51.186;17.130;2023-06-24T05:54:16;7.20;;;3.20;;
70532;SDS011;58088;51.186;17.130;2023-06-24T05:56:43;6.10;;;3.00;;
70532;SDS011;58088;51.186;17.130;2023-06-24T05:59:09;6.20;;;3.00;;
70532;SDS011;58088;51.186;17.130;2023-06-24T06:01:35;7.60;;;3.10;;
70532;SDS011;58088;51.186;17.130;2023-06-24T06:04:02;6.20;;;3.10;;
70532;SDS011;58088;51.186;17.130;2023-06-24T06:06:28;7.20;;;3.40;;
70532;SDS011;58088;51.186;17.130;2023-06-24T06:08:56;7.70;;;3.60;;
70532;SDS011;58088;51.186;17.130;2023-06-24T06:11:23;6.40;;;3.20;;
70532;SDS011;58088;51.186;17.130;2023-06-24T06:13:49;6.40;;;3.40;;
70532;SDS011;58088;51.186;17.130;2023-06-24T06:16:16;7.60;;;3.70;;
70532;SDS011;58088;51.186;17.130;2023-06-24T06:18:43;7.50;;;3.80;;
70532;SDS011;58088;51.186;17.130;2023-06-24T06:21:09;7.80;;;3.50;;
70532;SDS011;58088;51.186;17.130;2023-06-24T06:23:35;10.30;;;4.10;;
70532;SDS011;58088;51.186;17.130;2023-06-24T06:26:01;9.40;;;4.00;;
70532;SDS011;58088;51.186;17.130;2023-06-24T06:28:28;9.80;;;4.00;;
70532;SDS011;58088;51.186;17.130;2023-06-24T06:30:54;10.70;;;4.70;;
70532;SDS011;58088;51.186;17.130;2023-06-24T06:33:22;10.90;;;5.30;;
70532;SDS011;58088;51.186;17.130;2023-06-24T06:35:48;10.20;;;5.40;;
70532;SDS011;58088;51.186;17.130;2023-06-24T06:38:15;11.70;;;4.80;;
70532;SDS011;58088;51.186;17.130;2023-06-24T06:40:41;11.50;;;5.60;;
70532;SDS011;58088;51.186;17.130;2023-06-24T06:43:07;11.90;;;5.90;;
70532;SDS011;58088;51.186;17.130;2023-06-24T06:45:34;11.10;;;4.80;;
70532;SDS011;58088;51.186;17.130;2023-06-24T06:48:00;10.80;;;5.90;;
70532;SDS011;58088;51.186;17.130;2023-06-24T06:50:26;9.60;;;5.30;;
70532;SDS011;58088;51.186;17.130;2023-06-24T06:52:52;11.50;;;6.30;;
70532;SDS011;58088;51.186;17.130;2023-06-24T06:55:18;10.50;;;6.00;;
70532;SDS011;58088;51.186;17.130;2023-06-24T06:57:44;11.80;;;5.90;;
70532;SDS011;58088;51.186;17.130;2023-06-24T07:00:11;10.20;;;5.30;;
70532;SDS011;58088;51.186;17.130;2023-06-24T07:02:37;12.20;;;6.00;;
70532;SDS011;58088;51.186;17.130;2023-06-24T07:05:04;9.10;;;4.90;;
70532;SDS011;58088;51.186;17.130;2023-06-24T07:07:31;11.70;;;6.20;;
70532;SDS011;58088;51.186;17.130;2023-06-24T07:09:58;11.40;;;5.60;;
70532;SDS011;58088;51.186;17.130;2023-06-24T07:12:24;9.20;;;5.40;;
70532;SDS011;58088;51.186;17.130;2023-06-24T07:14:51;11.00;;;5.10;;
70532;SDS011;58088;51.186;17.130;2023-06-24T07:17:17;11.10;;;6.00;;
70532;SDS011;58088;51.186;17.130;2023-06-24T07:19:43;10.30;;;5.90;;
70532;SDS011;58088;51.186;17.130;2023-06-24T07:22:09;9.90;;;5.50;;
70532;SDS011;58088;51.186;17.130;2023-06-24T07:24:36;10.80;;;6.40;;
70532;SDS011;58088;51.186;17.130;2023-06-24T07:27:02;12.80;;;6.70;;
70532;SDS011;58088;51.186;17.130;2023-06-24T07:29:29;11.60;;;6.10;;
70532;SDS011;58088;51.186;17.130;2023-06-24T07:31:55;10.00;;;5.70;;
70532;SDS011;58088;51.186;17.130;2023-06-24T07:34:21;10.30;;;5.90;;
70532;SDS011;58088;51.186;17.130;2023-06-24T07:36:47;10.30;;;5.20;;
70532;SDS011;58088;51.186;17.130;2023-06-24T07:39:13;11.10;;;6.30;;
70532;SDS011;58088;51.186;17.130;2023-06-24T07:41:39;10.90;;;6.50;;
70532;SDS011;58088;51.186;17.130;2023-06-24T07:44:06;11.00;;;6.30;;
70532;SDS011;58088;51.186;17.130;2023-06-24T07:46:32;10.60;;;6.50;;
70532;SDS011;58088;51.186;17.130;2023-06-24T07:48:58;11.90;;;7.10;;
70532;SDS011;58088;51.186;17.130;2023-06-24T07:51:25;11.90;;;7.10;;
70532;SDS011;58088;51.186;17.130;2023-06-24T07:53:51;12.60;;;6.90;;
70532;SDS011;58088;51.186;17.130;2023-06-24T07:56:17;12.00;;;6.80;;
70532;SDS011;58088;51.186;17.130;2023-06-24T07:58:43;11.00;;;6.20;;
70532;SDS011;58088;51.186;17.130;2023-06-24T08:01:10;11.30;;;6.30;;
70532;SDS011;58088;51.186;17.130;2023-06-24T08:03:36;11.40;;;6.60;;
70532;SDS011;58088;51.186;17.130;2023-06-24T08:06:03;13.40;;;6.30;;
70532;SDS011;58088;51.186;17.130;2023-06-24T08:08:29;11.00;;;6.30;;
70532;SDS011;58088;51.186;17.130;2023-06-24T08:10:55;12.00;;;6.70;;
70532;SDS011;58088;51.186;17.130;2023-06-24T08:13:21;11.60;;;6.40;;
70532;SDS011;58088;51.186;17.130;2023-06-24T08:15:48;10.50;;;6.20;;
70532;SDS011;58088;51.186;17.130;2023-06-24T08:18:14;12.50;;;6.50;;
70532;SDS011;58088;51.186;17.130;2023-06-24T08:20:40;14.50;;;7.80;;
70532;SDS011;58088;51.186;17.130;2023-06-24T08:23:06;11.80;;;7.10;;
70532;SDS011;58088;51.186;17.130;2023-06-24T08:25:33;12.90;;;7.00;;
70532;SDS011;58088;51.186;17.130;2023-06-24T08:27:59;10.80;;;6.10;;
70532;SDS011;58088;51.186;17.130;2023-06-24T08:30:25;11.00;;;6.30;;
70532;SDS011;58088;51.186;17.130;2023-06-24T08:32:51;12.90;;;6.80;;
70532;SDS011;58088;51.186;17.130;2023-06-24T08:35:18;11.00;;;7.20;;
70532;SDS011;58088;51.186;17.130;2023-06-24T08:37:44;10.70;;;6.90;;
70532;SDS011;58088;51.186;17.130;2023-06-24T08:40:11;12.00;;;7.30;;
70532;SDS011;58088;51.186;17.130;2023-06-24T08:42:37;10.80;;;6.40;;
70532;SDS011;58088;51.186;17.130;2023-06-24T08:45:04;13.00;;;7.20;;
70532;SDS011;58088;51.186;17.130;2023-06-24T08:47:31;9.70;;;6.10;;
70532;SDS011;58088;51.186;17.130;2023-06-24T08:50:05;10.30;;;5.90;;
70532;SDS011;58088;51.186;17.130;2023-06-24T08:52:38;9.30;;;6.00;;
70532;SDS011;58088;51.186;17.130;2023-06-24T08:55:10;11.50;;;6.40;;
70532;SDS011;58088;51.186;17.130;2023-06-24T08:57:42;10.70;;;6.80;;
70532;SDS011;58088;51.186;17.130;2023-06-24T09:00:08;10.00;;;6.20;;
70532;SDS011;58088;51.186;17.130;2023-06-24T09:02:37;11.40;;;6.40;;
70532;SDS011;58088;51.186;17.130;2023-06-24T09:05:05;9.80;;;5.40;;
70532;SDS011;58088;51.186;17.130;2023-06-24T09:07:33;9.90;;;6.20;;
70532;SDS011;58088;51.186;17.130;2023-06-24T09:10:00;9.20;;;5.80;;
70532;SDS011;58088;51.186;17.130;2023-06-24T09:12:26;9.90;;;5.60;;
70532;SDS011;58088;51.186;17.130;2023-06-24T09:14:53;10.70;;;6.90;;
70532;SDS011;58088;51.186;17.130;2023-06-24T09:17:19;10.10;;;6.00;;
70532;SDS011;58088;51.186;17.130;2023-06-24T09:19:51;11.30;;;6.80;;
70532;SDS011;58088;51.186;17.130;2023-06-24T09:22:17;12.20;;;7.20;;
70532;SDS011;58088;51.186;17.130;2023-06-24T09:24:45;13.60;;;7.80;;
70532;SDS011;58088;51.186;17.130;2023-06-24T09:27:15;12.20;;;8.00;;
70532;SDS011;58088;51.186;17.130;2023-06-24T09:29:42;13.60;;;8.70;;
70532;SDS011;58088;51.186;17.130;2023-06-24T09:32:09;14.50;;;8.60;;
70532;SDS011;58088;51.186;17.130;2023-06-24T09:34:36;13.40;;;8.40;;
70532;SDS011;58088;51.186;17.130;2023-06-24T09:37:02;15.30;;;8.80;;
70532;SDS011;58088;51.186;17.130;2023-06-24T09:39:35;15.00;;;9.60;;
70532;SDS011;58088;51.186;17.130;2023-06-24T09:42:04;12.80;;;8.70;;
70532;SDS011;58088;51.186;17.130;2023-06-24T09:44:32;14.30;;;8.10;;
70532;SDS011;58088;51.186;17.130;2023-06-24T09:46:59;15.10;;;8.70;;
70532;SDS011;58088;51.186;17.130;2023-06-24T09:49:25;14.30;;;9.30;;
70532;SDS011;58088;51.186;17.130;2023-06-24T09:51:58;13.50;;;8.80;;
70532;SDS011;58088;51.186;17.130;2023-06-24T09:54:26;15.50;;;10.40;;
70532;SDS011;58088;51.186;17.130;2023-06-24T09:56:54;16.00;;;8.80;;
70532;SDS011;58088;51.186;17.130;2023-06-24T09:59:25;17.50;;;9.70;;
70532;SDS011;58088;51.186;17.130;2023-06-24T10:01:53;24.20;;;10.50;;
70532;SDS011;58088;51.186;17.130;2023-06-24T10:04:21;17.40;;;9.70;;
70532;SDS011;58088;51.186;17.130;2023-06-24T10:06:50;19.90;;;9.50;;
70532;SDS011;58088;51.186;17.130;2023-06-24T10:09:17;27.00;;;10.30;;
70532;SDS011;58088;51.186;17.130;2023-06-24T10:11:46;36.80;;;11.30;;
70532;SDS011;58088;51.186;17.130;2023-06-24T10:14:14;16.80;;;8.40;;
70532;SDS011;58088;51.186;17.130;2023-06-24T10:16:42;14.30;;;9.10;;
70532;SDS011;58088;51.186;17.130;2023-06-24T10:19:08;19.60;;;8.80;;
70532;SDS011;58088;51.186;17.130;2023-06-24T10:21:52;16.10;;;8.80;;
70532;SDS011;58088;51.186;17.130;2023-06-24T10:24:30;13.80;;;8.80;;
70532;SDS011;58088;51.186;17.130;2023-06-24T10:27:03;13.70;;;8.50;;
70532;SDS011;58088;51.186;17.130;2023-06-24T10:29:35;15.70;;;9.00;;
70532;SDS011;58088;51.186;17.130;2023-06-24T10:32:09;16.30;;;8.70;;
70532;SDS011;58088;51.186;17.130;2023-06-24T10:34:40;28.20;;;9.30;;
70532;SDS011;58088;51.186;17.130;2023-06-24T10:37:08;15.50;;;8.70;;
70532;SDS011;58088;51.186;17.130;2023-06-24T10:39:58;13.30;;;8.30;;
70532;SDS011;58088;51.186;17.130;2023-06-24T10:42:44;12.30;;;7.40;;
70532;SDS011;58088;51.186;17.130;2023-06-24T10:45:14;12.40;;;8.10;;
70532;SDS011;58088;51.186;17.130;2023-06-24T10:47:50;13.40;;;8.30;;
70532;SDS011;58088;51.186;17.130;2023-06-24T10:50:25;21.40;;;7.80;;
70532;SDS011;58088;51.186;17.130;2023-06-24T10:52:53;14.70;;;8.70;;
70532;SDS011;58088;51.186;17.130;2023-06-24T10:55:22;14.00;;;8.40;;
70532;SDS011;58088;51.186;17.130;2023-06-24T10:57:53;13.70;;;8.20;;
70532;SDS011;58088;51.186;17.130;2023-06-24T11:00:20;14.70;;;8.40;;
70532;SDS011;58088;51.186;17.130;2023-06-24T11:02:48;12.50;;;8.20;;
70532;SDS011;58088;51.186;17.130;2023-06-24T11:05:14;13.60;;;8.00;;
70532;SDS011;58088;51.186;17.130;2023-06-24T11:07:41;12.50;;;6.90;;
70532;SDS011;58088;51.186;17.130;2023-06-24T11:10:12;11.90;;;7.00;;
70532;SDS011;58088;51.186;17.130;2023-06-24T11:12:42;11.10;;;7.70;;
70532;SDS011;58088;51.186;17.130;2023-06-24T11:15:10;11.20;;;7.50;;
70532;SDS011;58088;51.186;17.130;2023-06-24T11:17:40;12.00;;;7.10;;
70532;SDS011;58088;51.186;17.130;2023-06-24T11:20:11;11.20;;;7.10;;
70532;SDS011;58088;51.186;17.130;2023-06-24T11:22:40;14.00;;;7.40;;
70532;SDS011;58088;51.186;17.130;2023-06-24T11:25:14;10.60;;;6.90;;
70532;SDS011;58088;51.186;17.130;2023-06-24T11:27:42;11.10;;;6.90;;
70532;SDS011;58088;51.186;17.130;2023-06-24T11:30:08;12.50;;;7.50;;
70532;SDS011;58088;51.186;17.130;2023-06-24T11:32:39;11.80;;;7.50;;
70532;SDS011;58088;51.186;17.130;2023-06-24T11:35:11;11.60;;;7.70;;
70532;SDS011;58088;51.186;17.130;2023-06-24T11:37:42;10.00;;;6.90;;
70532;SDS011;58088;51.186;17.130;2023-06-24T11:40:13;10.30;;;7.00;;
70532;SDS011;58088;51.186;17.130;2023-06-24T11:42:44;10.90;;;7.80;;
70532;SDS011;58088;51.186;17.130;2023-06-24T11:45:11;10.40;;;6.60;;
70532;SDS011;58088;51.186;17.130;2023-06-24T11:47:41;11.00;;;6.60;;
70532;SDS011;58088;51.186;17.130;2023-06-24T11:50:08;10.30;;;7.20;;
70532;SDS011;58088;51.186;17.130;2023-06-24T11:52:43;10.60;;;6.90;;
70532;SDS011;58088;51.186;17.130;2023-06-24T11:55:22;10.90;;;6.90;;
70532;SDS011;58088;51.186;17.130;2023-06-24T11:58:02;10.50;;;6.50;;
70532;SDS011;58088;51.186;17.130;2023-06-24T12:00:35;9.00;;;5.70;;
70532;SDS011;58088;51.186;17.130;2023-06-24T12:03:07;11.70;;;6.90;;
70532;SDS011;58088;51.186;17.130;2023-06-24T12:05:35;12.70;;;7.00;;
70532;SDS011;58088;51.186;17.130;2023-06-24T12:08:06;10.70;;;6.90;;
70532;SDS011;58088;51.186;17.130;2023-06-24T12:10:34;14.70;;;7.20;;
70532;SDS011;58088;51.186;17.130;2023-06-24T12:13:02;13.40;;;6.40;;
70532;SDS011;58088;51.186;17.130;2023-06-24T12:15:32;11.10;;;6.60;;
70532;SDS011;58088;51.186;17.130;2023-06-24T12:17:58;10.80;;;6.60;;
70532;SDS011;58088;51.186;17.130;2023-06-24T12:20:25;11.10;;;6.80;;
70532;SDS011;58088;51.186;17.130;2023-06-24T12:22:52;11.00;;;6.40;;
70532;SDS011;58088;51.186;17.130;2023-06-24T12:25:18;11.40;;;6.40;;
70532;SDS011;58088;51.186;17.130;2023-06-24T12:27:44;12.60;;;7.20;;
70532;SDS011;58088;51.186;17.130;2023-06-24T12:30:11;10.30;;;6.80;;
70532;SDS011;58088;51.186;17.130;2023-06-24T12:32:39;12.90;;;7.00;;
70532;SDS011;58088;51.186;17.130;2023-06-24T12:35:06;9.20;;;6.50;;
70532;SDS011;58088;51.186;17.130;2023-06-24T12:37:35;9.40;;;6.40;;
70532;SDS011;58088;51.186;17.130;2023-06-24T12:40:03;9.60;;;6.30;;
70532;SDS011;58088;51.186;17.130;2023-06-24T12:42:30;10.40;;;6.50;;
70532;SDS011;58088;51.186;17.130;2023-06-24T12:44:56;10.60;;;6.50;;
70532;SDS011;58088;51.186;17.130;2023-06-24T12:47:22;9.30;;;6.00;;
70532;SDS011;58088;51.186;17.130;2023-06-24T12:49:49;8.40;;;6.00;;
70532;SDS011;58088;51.186;17.130;2023-06-24T12:52:15;9.30;;;6.30;;
70532;SDS011;58088;51.186;17.130;2023-06-24T12:54:42;9.10;;;5.90;;
70532;SDS011;58088;51.186;17.130;2023-06-24T12:57:08;9.40;;;6.30;;
70532;SDS011;58088;51.186;17.130;2023-06-24T12:59:34;8.40;;;5.90;;
70532;SDS011;58088;51.186;17.130;2023-06-24T13:02:01;9.10;;;6.00;;
70532;SDS011;58088;51.186;17.130;2023-06-24T13:04:27;10.60;;;5.60;;
70532;SDS011;58088;51.186;17.130;2023-06-24T13:06:53;7.80;;;5.20;;
70532;SDS011;58088;51.186;17.130;2023-06-24T13:09:20;7.20;;;4.50;;
70532;SDS011;58088;51.186;17.130;2023-06-24T13:11:46;9.00;;;5.00;;
70532;SDS011;58088;51.186;17.130;2023-06-24T13:14:13;11.20;;;5.50;;
70532;SDS011;58088;51.186;17.130;2023-06-24T13:16:40;8.50;;;6.40;;
70532;SDS011;58088;51.186;17.130;2023-06-24T13:19:06;7.40;;;5.00;;
70532;SDS011;58088;51.186;17.130;2023-06-24T13:21:32;8.80;;;5.30;;
70532;SDS011;58088;51.186;17.130;2023-06-24T13:23:58;8.80;;;5.60;;
70532;SDS011;58088;51.186;17.130;2023-06-24T13:26:24;7.80;;;5.30;;
70532;SDS011;58088;51.186;17.130;2023-06-24T13:28:51;9.20;;;5.10;;
70532;SDS011;58088;51.186;17.130;2023-06-24T13:31:18;8.90;;;5.20;;
70532;SDS011;58088;51.186;17.130;2023-06-24T13:33:44;8.10;;;5.50;;
70532;SDS011;58088;51.186;17.130;2023-06-24T13:36:25;10.70;;;5.30;;
70532;SDS011;58088;51.186;17.130;2023-06-24T13:38:55;8.50;;;5.50;;
70532;SDS011;58088;51.186;17.130;2023-06-24T13:41:22;9.10;;;5.20;;
70532;SDS011;58088;51.186;17.130;2023-06-24T13:43:48;9.70;;;6.20;;
70532;SDS011;58088;51.186;17.130;2023-06-24T13:46:15;8.00;;;5.60;;
70532;SDS011;58088;51.186;17.130;2023-06-24T13:48:41;9.60;;;5.90;;
70532;SDS011;58088;51.186;17.130;2023-06-24T13:51:09;7.80;;;5.50;;
70532;SDS011;58088;51.186;17.130;2023-06-24T13:53:35;8.40;;;5.30;;
70532;SDS011;58088;51.186;17.130;2023-06-24T13:56:01;8.70;;;5.30;;
70532;SDS011;58088;51.186;17.130;2023-06-24T13:58:28;6.90;;;4.70;;
70532;SDS011;58088;51.186;17.130;2023-06-24T14:00:54;9.70;;;5.30;;
70532;SDS011;58088;51.186;17.130;2023-06-24T14:03:20;8.60;;;5.20;;
70532;SDS011;58088;51.186;17.130;2023-06-24T14:05:46;7.40;;;5.10;;
70532;SDS011;58088;51.186;17.130;2023-06-24T14:08:12;8.40;;;4.90;;
70532;SDS011;58088;51.186;17.130;2023-06-24T14:10:38;7.00;;;4.80;;
70532;SDS011;58088;51.186;17.130;2023-06-24T14:13:04;7.50;;;4.90;;
70532;SDS011;58088;51.186;17.130;2023-06-24T14:15:31;8.30;;;4.80;;
70532;SDS011;58088;51.186;17.130;2023-06-24T14:17:57;8.10;;;5.30;;
70532;SDS011;58088;51.186;17.130;2023-06-24T14:20:24;7.30;;;4.70;;
70532;SDS011;58088;51.186;17.130;2023-06-24T14:22:51;7.90;;;4.80;;
70532;SDS011;58088;51.186;17.130;2023-06-24T14:25:17;7.90;;;5.10;;
70532;SDS011;58088;51.186;17.130;2023-06-24T14:27:44;7.40;;;4.60;;
70532;SDS011;58088;51.186;17.130;2023-06-24T14:30:11;7.40;;;4.50;;
70532;SDS011;58088;51.186;17.130;2023-06-24T14:32:37;7.90;;;4.90;;
70532;SDS011;58088;51.186;17.130;2023-06-24T14:35:04;8.20;;;5.60;;
70532;SDS011;58088;51.186;17.130;2023-06-24T14:37:30;7.80;;;5.00;;
70532;SDS011;58088;51.186;17.130;2023-06-24T14:39:57;8.60;;;4.90;;
70532;SDS011;58088;51.186;17.130;2023-06-24T14:42:23;7.70;;;5.10;;
70532;SDS011;58088;51.186;17.130;2023-06-24T14:44:50;7.70;;;5.00;;
70532;SDS011;58088;51.186;17.130;2023-06-24T14:47:16;7.00;;;4.80;;